Crane, Indiana
Current Conditions -  °F | °C
As of 8:35 PM on Thursday 20 Nov 2014 (Local Time) from KDCY Reporting Station
Clear Clear  
Wind Chill: 27°   Ceiling: Unl
Heat Index: 27°   Visibility: 10mi
Dew Point: 17°   Wind: 3mph
Humidity: 68%   Direction: 280°W
Pressure: 30.28"   Gusts: NA
Location:  38.89°N, 86.9°W
Report Text: KDCY 210235Z AUTO 28003KT 10SM CLR M03/M08 A3028 RMK AO2 T10301081
Loading
Personal Weather Stations






























Interactive Weather Map New forecast layout! Learn more

10-Day Weather Forecast

Advertisements
Track Severe Weather on mobile